Time;durP1;ratioP1;P1;durP2;ratioP2;P2;SDS_P1;SDS_P2;PMS_P1;PMS_P2;Temp;Humidity;BMP_temperature;BMP_pressure;BME280_temperature;BME280_humidity;BME280_pressure;Samples;Min_cycle;Max_cycle;Signal;HPM_P1;HPM_P2
2022/08/20 00:00:55;;;;;;;18.80;13.73;;;;;;;;;;6116650;23;20167;-85
2022/08/20 00:03:30;;;;;;;18.25;13.90;;;;;;;;;;6116211;23;20018;-86
2022/08/20 00:05:59;;;;;;;20.67;14.68;;;;;;;;;;6091573;23;20630;-85
2022/08/20 00:08:25;;;;;;;18.40;13.40;;;;;;;;;;6116475;23;20018;-85
2022/08/20 00:10:51;;;;;;;15.50;12.73;;;;;;;;;;6091891;23;20028;-86
2022/08/20 00:13:26;;;;;;;16.10;12.82;;;;;;;;;;6116314;23;20348;-85
2022/08/20 00:15:51;;;;;;;16.80;13.07;;;;;;;;;;6091963;23;20013;-85
2022/08/20 00:18:17;;;;;;;20.30;13.52;;;;;;;;;;6092345;23;20468;-84
2022/08/20 00:20:45;;;;;;;16.63;12.35;;;;;;;;;;6091142;23;20014;-85
2022/08/20 00:23:12;;;;;;;17.08;11.68;;;;;;;;;;6116218;23;20014;-85
2022/08/20 00:25:37;;;;;;;14.57;11.45;;;;;;;;;;6115976;23;20014;-85
2022/08/20 00:28:05;;;;;;;15.30;11.07;;;;;;;;;;6116426;23;20016;-85
2022/08/20 00:30:31;;;;;;;14.77;11.43;;;;;;;;;;6091690;23;20088;-84
2022/08/20 00:33:18;;;;;;;14.27;11.40;;;;;;;;;;6116936;23;20100;-85
2022/08/20 00:35:48;;;;;;;15.98;11.75;;;;;;;;;;6090970;23;20204;-85
2022/08/20 00:38:13;;;;;;;13.45;11.13;;;;;;;;;;6091821;23;20022;-85
2022/08/20 00:40:44;;;;;;;15.85;11.45;;;;;;;;;;6091324;23;20338;-84
2022/08/20 00:43:31;;;;;;;14.07;10.98;;;;;;;;;;6091419;23;20089;-86
2022/08/20 00:45:59;;;;;;;12.98;10.38;;;;;;;;;;6118229;23;20096;-85
2022/08/20 00:48:27;;;;;;;14.30;11.65;;;;;;;;;;6091449;23;20502;-85
2022/08/20 00:50:56;;;;;;;15.13;10.98;;;;;;;;;;6091811;23;20014;-85
2022/08/20 00:53:23;;;;;;;13.27;10.05;;;;;;;;;;6092059;23;20010;-84
2022/08/20 00:55:48;;;;;;;14.00;11.10;;;;;;;;;;6090404;23;20024;-84
2022/08/20 00:58:14;;;;;;;13.63;10.45;;;;;;;;;;6091552;23;20018;-86
2022/08/20 01:00:43;;;;;;;15.38;10.27;;;;;;;;;;6115716;23;20017;-85
2022/08/20 01:03:11;;;;;;;14.18;10.85;;;;;;;;;;6115944;23;20022;-85
2022/08/20 01:05:39;;;;;;;14.38;10.25;;;;;;;;;;6091282;23;20716;-84
2022/08/20 01:08:05;;;;;;;12.23;10.55;;;;;;;;;;6091610;23;20093;-85
2022/08/20 01:10:34;;;;;;;12.70;10.52;;;;;;;;;;6116505;23;20038;-85
2022/08/20 01:13:05;;;;;;;16.45;12.40;;;;;;;;;;6091579;23;20354;-84
2022/08/20 01:15:30;;;;;;;13.40;11.18;;;;;;;;;;6115499;23;20481;-84
2022/08/20 01:17:57;;;;;;;15.93;11.52;;;;;;;;;;6091199;23;20124;-84
2022/08/20 01:20:32;;;;;;;15.07;12.17;;;;;;;;;;6115724;23;20062;-84
2022/08/20 01:23:26;;;;;;;14.63;12.05;;;;;;;;;;6091565;23;20029;-84
2022/08/20 01:26:03;;;;;;;15.32;12.07;;;;;;;;;;6114790;23;20112;-84
2022/08/20 01:28:51;;;;;;;15.45;11.98;;;;;;;;;;6090901;23;20017;-84
2022/08/20 01:31:21;;;;;;;16.20;12.50;;;;;;;;;;6115096;23;20022;-84
2022/08/20 01:33:47;;;;;;;14.85;12.43;;;;;;;;;;6115246;23;20017;-84
2022/08/20 01:36:14;;;;;;;14.88;12.07;;;;;;;;;;6091314;23;20104;-84
2022/08/20 01:38:40;;;;;;;16.15;12.07;;;;;;;;;;6091546;23;20013;-84
2022/08/20 01:41:15;;;;;;;15.83;12.17;;;;;;;;;;6090953;23;20014;-83
2022/08/20 01:43:41;;;;;;;13.80;11.10;;;;;;;;;;6091254;23;20454;-84
2022/08/20 01:46:09;;;;;;;13.50;11.15;;;;;;;;;;6091017;23;20037;-83
2022/08/20 01:48:35;;;;;;;14.18;11.02;;;;;;;;;;6115492;23;20073;-84
2022/08/20 01:51:06;;;;;;;14.35;11.30;;;;;;;;;;6090853;23;20463;-83
2022/08/20 01:53:36;;;;;;;13.57;11.30;;;;;;;;;;6117625;23;20022;-83
2022/08/20 01:56:03;;;;;;;15.70;11.55;;;;;;;;;;6092392;23;20109;-84
2022/08/20 01:58:29;;;;;;;14.27;11.60;;;;;;;;;;6094232;23;20013;-84
2022/08/20 02:00:56;;;;;;;15.73;11.98;;;;;;;;;;6117134;23;20085;-83
2022/08/20 02:03:22;;;;;;;16.23;12.25;;;;;;;;;;6093602;23;20089;-83
2022/08/20 02:05:47;;;;;;;15.68;12.77;;;;;;;;;;6116732;23;20041;-83
2022/08/20 02:08:13;;;;;;;17.17;13.00;;;;;;;;;;6117101;23;20536;-84
2022/08/20 02:10:39;;;;;;;16.42;13.00;;;;;;;;;;6117437;23;20021;-84
2022/08/20 02:13:08;;;;;;;18.17;13.25;;;;;;;;;;6093324;23;20092;-83
2022/08/20 02:15:33;;;;;;;16.48;12.65;;;;;;;;;;6093475;23;20334;-84
2022/08/20 02:18:03;;;;;;;17.60;13.18;;;;;;;;;;6093257;23;20016;-84
2022/08/20 02:20:29;;;;;;;18.88;14.20;;;;;;;;;;6093540;23;20014;-84
2022/08/20 02:22:57;;;;;;;16.88;14.00;;;;;;;;;;6117750;23;20394;-83
2022/08/20 02:25:27;;;;;;;18.30;13.93;;;;;;;;;;6117299;23;20016;-84
2022/08/20 02:27:54;;;;;;;16.42;13.48;;;;;;;;;;6117533;23;20080;-84
2022/08/20 02:30:26;;;;;;;16.40;13.50;;;;;;;;;;6117366;23;20026;-84
2022/08/20 02:32:51;;;;;;;17.48;13.20;;;;;;;;;;6093287;23;20017;-84
2022/08/20 02:35:17;;;;;;;19.08;13.45;;;;;;;;;;6092859;23;20025;-84
2022/08/20 02:37:44;;;;;;;16.75;13.30;;;;;;;;;;6117116;23;20021;-84
2022/08/20 02:40:17;;;;;;;17.42;13.20;;;;;;;;;;6092529;23;20073;-84
2022/08/20 02:42:43;;;;;;;17.08;13.68;;;;;;;;;;6092871;23;20014;-83
2022/08/20 02:45:14;;;;;;;16.80;13.00;;;;;;;;;;6092846;23;20451;-84
2022/08/20 02:47:40;;;;;;;16.67;12.68;;;;;;;;;;6092638;23;20022;-84
2022/08/20 02:50:06;;;;;;;18.58;13.40;;;;;;;;;;6116947;23;20018;-83
2022/08/20 02:52:32;;;;;;;17.20;13.82;;;;;;;;;;6092672;23;20493;-84
2022/08/20 02:54:57;;;;;;;18.05;13.55;;;;;;;;;;6093599;23;20018;-84
2022/08/20 02:57:23;;;;;;;18.23;14.18;;;;;;;;;;6116595;23;20018;-85
2022/08/20 02:59:51;;;;;;;19.50;13.93;;;;;;;;;;6092978;23;20338;-84
2022/08/20 03:02:19;;;;;;;18.23;14.15;;;;;;;;;;6092641;23;20624;-84
2022/08/20 03:04:44;;;;;;;18.63;14.00;;;;;;;;;;6092691;23;20064;-84
2022/08/20 03:07:10;;;;;;;19.42;13.98;;;;;;;;;;6116741;23;20089;-84
2022/08/20 03:09:37;;;;;;;18.80;14.23;;;;;;;;;;6117294;23;20014;-83
2022/08/20 03:12:03;;;;;;;19.92;14.52;;;;;;;;;;6091783;23;20021;-84
2022/08/20 03:14:29;;;;;;;19.83;13.75;;;;;;;;;;6118004;23;20014;-84
2022/08/20 03:16:54;;;;;;;18.65;14.15;;;;;;;;;;6116290;23;20082;-84
2022/08/20 03:19:20;;;;;;;20.08;14.27;;;;;;;;;;6092475;23;20101;-84
2022/08/20 03:21:45;;;;;;;20.52;14.80;;;;;;;;;;6116513;23;20018;-84
2022/08/20 03:24:11;;;;;;;20.23;14.70;;;;;;;;;;6092372;23;20387;-84
2022/08/20 03:26:36;;;;;;;23.85;16.52;;;;;;;;;;6116645;23;20028;-84
2022/08/20 03:29:01;;;;;;;20.65;15.88;;;;;;;;;;6117010;23;20021;-84
2022/08/20 03:31:28;;;;;;;25.50;17.23;;;;;;;;;;6116876;23;20464;-84
2022/08/20 03:33:53;;;;;;;25.95;17.17;;;;;;;;;;6092639;23;20342;-85
2022/08/20 03:36:20;;;;;;;25.05;17.00;;;;;;;;;;6116145;23;20014;-84
2022/08/20 03:38:45;;;;;;;24.63;17.00;;;;;;;;;;6092493;23;20375;-84
2022/08/20 03:41:11;;;;;;;23.73;17.48;;;;;;;;;;6116575;23;20025;-84
2022/08/20 03:43:40;;;;;;;23.55;17.15;;;;;;;;;;6092279;23;20451;-84
2022/08/20 03:46:06;;;;;;;27.45;18.30;;;;;;;;;;6092749;23;20486;-84
2022/08/20 03:48:31;;;;;;;26.33;18.23;;;;;;;;;;6115418;23;20046;-84
2022/08/20 03:50:59;;;;;;;27.52;18.42;;;;;;;;;;6092424;23;20072;-84
2022/08/20 03:53:25;;;;;;;;;;;;;;;;;;6116969;23;20121;-85
2022/08/20 03:55:54;;;;;;;24.67;17.20;;;;;;;;;;6116347;23;19924;-85
2022/08/20 03:58:20;;;;;;;29.30;19.08;;;;;;;;;;6092650;23;20014;-85
2022/08/20 04:00:48;;;;;;;26.67;17.98;;;;;;;;;;6091509;23;20020;-85
2022/08/20 04:03:13;;;;;;;28.85;18.38;;;;;;;;;;6115900;23;20462;-85
2022/08/20 04:05:40;;;;;;;30.67;19.20;;;;;;;;;;6091326;23;20096;-85
2022/08/20 04:08:14;;;;;;;27.75;18.83;;;;;;;;;;6092154;23;20026;-84
2022/08/20 04:10:40;;;;;;;28.02;18.85;;;;;;;;;;6091327;23;20068;-85
2022/08/20 04:13:06;;;;;;;30.48;20.35;;;;;;;;;;6091749;23;20485;-85
2022/08/20 04:15:34;;;;;;;29.20;18.83;;;;;;;;;;6090951;23;20085;-84
2022/08/20 04:17:59;;;;;;;29.00;19.33;;;;;;;;;;6092554;23;20018;-84
2022/08/20 04:20:25;;;;;;;29.02;19.25;;;;;;;;;;6115837;23;20024;-84
2022/08/20 04:22:54;;;;;;;29.13;18.38;;;;;;;;;;6116043;23;20446;-85
2022/08/20 04:25:20;;;;;;;27.30;18.45;;;;;;;;;;6091373;23;20028;-84
2022/08/20 04:27:49;;;;;;;29.80;19.00;;;;;;;;;;6091948;23;20448;-85
2022/08/20 04:30:16;;;;;;;27.92;17.88;;;;;;;;;;6092082;23;20465;-84
2022/08/20 04:32:42;;;;;;;26.70;18.55;;;;;;;;;;6091488;23;20017;-84
2022/08/20 04:35:16;;;;;;;27.13;17.83;;;;;;;;;;6116678;23;20022;-84
2022/08/20 04:37:43;;;;;;;29.20;19.45;;;;;;;;;;6115866;23;20014;-85
2022/08/20 04:42:56;;;;;;;26.80;17.90;;;;;;;;;;6116078;23;20112;-85
2022/08/20 04:45:21;;;;;;;26.20;18.10;;;;;;;;;;6115896;23;20038;-84
2022/08/20 04:47:50;;;;;;;26.63;18.98;;;;;;;;;;6091306;23;20022;-85
2022/08/20 04:50:17;;;;;;;28.42;18.92;;;;;;;;;;6090598;23;20025;-84
2022/08/20 04:52:42;;;;;;;26.45;18.65;;;;;;;;;;6116011;23;20028;-84
2022/08/20 04:55:08;;;;;;;25.65;17.23;;;;;;;;;;6116513;23;20025;-84
2022/08/20 04:57:37;;;;;;;28.77;17.95;;;;;;;;;;6115370;23;20018;-85
2022/08/20 05:00:05;;;;;;;26.58;18.13;;;;;;;;;;6093108;23;20406;-84
2022/08/20 05:02:30;;;;;;;24.38;17.60;;;;;;;;;;6091088;23;20461;-85
2022/08/20 05:04:56;;;;;;;24.85;17.48;;;;;;;;;;6092474;23;20010;-85
2022/08/20 05:07:21;;;;;;;22.67;16.33;;;;;;;;;;6090396;23;20176;-85
2022/08/20 05:09:46;;;;;;;26.45;17.92;;;;;;;;;;6116204;23;20037;-85
2022/08/20 05:12:14;;;;;;;23.77;16.33;;;;;;;;;;6115460;23;20457;-85
2022/08/20 05:14:41;;;;;;;25.10;17.77;;;;;;;;;;6092663;23;20018;-85
2022/08/20 05:17:07;;;;;;;26.60;17.30;;;;;;;;;;6090405;23;20025;-84
2022/08/20 05:19:34;;;;;;;22.45;17.13;;;;;;;;;;6091776;23;20099;-84
2022/08/20 05:22:00;;;;;;;25.38;17.55;;;;;;;;;;6091556;23;20044;-84
2022/08/20 05:24:26;;;;;;;26.15;17.15;;;;;;;;;;6092371;23;20017;-85
2022/08/20 05:26:54;;;;;;;25.27;18.05;;;;;;;;;;6090625;23;20022;-85
2022/08/20 05:29:20;;;;;;;23.88;17.02;;;;;;;;;;6091938;23;20026;-85
2022/08/20 05:31:46;;;;;;;23.63;16.77;;;;;;;;;;6091478;23;20050;-84
2022/08/20 05:34:11;;;;;;;23.60;16.92;;;;;;;;;;6091677;23;20044;-85
2022/08/20 05:36:42;;;;;;;25.25;16.67;;;;;;;;;;6115419;23;20451;-83
2022/08/20 05:39:08;;;;;;;24.15;17.15;;;;;;;;;;6091679;23;20022;-85
2022/08/20 05:41:33;;;;;;;22.67;16.42;;;;;;;;;;6091533;23;20284;-84
2022/08/20 05:44:01;;;;;;;25.85;17.67;;;;;;;;;;6092170;23;20017;-85
2022/08/20 05:46:31;;;;;;;24.10;16.73;;;;;;;;;;6115601;23;20358;-84
2022/08/20 05:49:00;;;;;;;23.02;16.88;;;;;;;;;;6115229;23;20056;-85
2022/08/20 05:51:25;;;;;;;;;;;;;;;;;;6116041;23;20084;-85
2022/08/20 05:53:51;;;;;;;22.25;16.67;;;;;;;;;;6091754;23;21967;-84
2022/08/20 05:56:16;;;;;;;21.42;16.40;;;;;;;;;;6089561;23;20018;-84
2022/08/20 05:58:41;;;;;;;20.63;15.68;;;;;;;;;;6091298;23;20073;-84
2022/08/20 06:01:07;;;;;;;21.98;16.88;;;;;;;;;;6090656;23;20018;-84
2022/08/20 06:06:16;;;;;;;21.92;16.05;;;;;;;;;;6115346;23;20067;-85
2022/08/20 06:08:41;;;;;;;21.52;15.65;;;;;;;;;;6091126;23;20018;-85
2022/08/20 06:11:06;;;;;;;25.52;17.13;;;;;;;;;;6090882;23;20025;-85
2022/08/20 06:13:32;;;;;;;23.17;17.30;;;;;;;;;;6090862;23;20013;-84
2022/08/20 06:16:01;;;;;;;23.60;17.77;;;;;;;;;;6115638;23;20416;-84
2022/08/20 06:18:26;;;;;;;22.92;16.23;;;;;;;;;;6115522;23;20017;-84
2022/08/20 06:20:52;;;;;;;23.90;16.88;;;;;;;;;;6091254;23;20018;-84
2022/08/20 06:23:18;;;;;;;25.33;18.17;;;;;;;;;;6091053;23;20080;-84
2022/08/20 06:25:44;;;;;;;23.77;16.92;;;;;;;;;;6115419;23;20013;-84
2022/08/20 06:28:09;;;;;;;21.65;16.80;;;;;;;;;;6115591;23;20018;-83
2022/08/20 06:30:35;;;;;;;25.92;16.95;;;;;;;;;;6115270;23;20010;-84
2022/08/20 06:33:00;;;;;;;20.73;16.05;;;;;;;;;;6116324;23;20014;-84
2022/08/20 06:35:26;;;;;;;24.90;17.58;;;;;;;;;;6090757;23;20021;-84
2022/08/20 06:37:52;;;;;;;21.90;16.17;;;;;;;;;;6115690;23;20085;-84
2022/08/20 06:40:27;;;;;;;20.65;16.30;;;;;;;;;;6091918;23;20185;-83
2022/08/20 06:42:52;;;;;;;20.95;15.57;;;;;;;;;;6093235;23;20014;-83
2022/08/20 06:45:23;;;;;;;24.58;17.88;;;;;;;;;;6117053;23;20342;-83
2022/08/20 06:47:49;;;;;;;22.92;16.65;;;;;;;;;;6093015;23;20046;-84
2022/08/20 06:50:24;;;;;;;18.08;14.63;;;;;;;;;;6092557;23;20119;-83
2022/08/20 06:52:49;;;;;;;20.15;15.10;;;;;;;;;;6093051;23;20097;-84
2022/08/20 06:55:16;;;;;;;20.15;15.70;;;;;;;;;;6117200;23;20727;-83
2022/08/20 06:57:42;;;;;;;23.27;15.93;;;;;;;;;;6116753;23;20141;-84
2022/08/20 07:00:14;;;;;;;19.77;15.10;;;;;;;;;;6116642;23;20026;-83
2022/08/20 07:02:40;;;;;;;20.48;14.55;;;;;;;;;;6092071;23;20010;-84
2022/08/20 07:05:06;;;;;;;16.85;13.10;;;;;;;;;;6093185;23;20014;-85
2022/08/20 07:07:33;;;;;;;19.75;15.23;;;;;;;;;;6091570;23;20024;-84
2022/08/20 07:10:06;;;;;;;17.83;13.80;;;;;;;;;;6118127;23;20018;-84
2022/08/20 07:12:34;;;;;;;16.80;13.75;;;;;;;;;;6116237;23;20398;-85
2022/08/20 07:14:59;;;;;;;20.48;15.85;;;;;;;;;;6093556;23;20096;-85
2022/08/20 07:17:24;;;;;;;20.55;15.50;;;;;;;;;;6091673;23;20017;-84
2022/08/20 07:19:50;;;;;;;20.05;14.30;;;;;;;;;;6093054;23;20010;-84
2022/08/20 07:22:15;;;;;;;23.05;16.45;;;;;;;;;;6091147;23;20018;-85
2022/08/20 07:24:41;;;;;;;20.10;15.32;;;;;;;;;;6092824;23;20493;-84
2022/08/20 07:27:07;;;;;;;22.20;15.68;;;;;;;;;;6091982;23;20022;-84
2022/08/20 07:32:35;;;;;;;22.70;16.88;;;;;;;;;;6116281;23;20037;-83
2022/08/20 07:35:03;;;;;;;23.60;15.35;;;;;;;;;;6096304;23;20604;-84
2022/08/20 07:37:29;;;;;;;26.88;17.38;;;;;;;;;;6115932;23;20024;-85
2022/08/20 07:39:54;;;;;;;21.35;16.10;;;;;;;;;;6093351;23;20057;-83
2022/08/20 07:42:19;;;;;;;23.90;17.80;;;;;;;;;;6115756;23;20041;-84
2022/08/20 07:44:45;;;;;;;24.65;17.95;;;;;;;;;;6093153;23;20149;-85
2022/08/20 07:47:11;;;;;;;26.58;18.35;;;;;;;;;;6090540;23;20033;-84
2022/08/20 07:49:38;;;;;;;25.58;18.30;;;;;;;;;;6117200;23;20021;-85
2022/08/20 07:52:04;;;;;;;21.85;16.67;;;;;;;;;;6090598;23;20025;-80
2022/08/20 07:54:30;;;;;;;22.52;16.23;;;;;;;;;;6093326;23;20085;-86
2022/08/20 07:57:00;;;;;;;26.05;18.85;;;;;;;;;;6115272;23;20097;-85
2022/08/20 07:59:25;;;;;;;25.10;18.10;;;;;;;;;;6093118;23;20093;-86
2022/08/20 08:01:50;;;;;;;26.60;18.42;;;;;;;;;;6091987;23;20069;-85
2022/08/20 08:04:15;;;;;;;26.63;19.23;;;;;;;;;;6116576;23;20481;-85
2022/08/20 08:06:44;;;;;;;27.15;18.13;;;;;;;;;;6116742;23;20017;-86
2022/08/20 08:09:13;;;;;;;27.05;18.55;;;;;;;;;;6115203;23;20334;-87
2022/08/20 08:11:40;;;;;;;27.77;19.73;;;;;;;;;;6091476;23;20009;-85
2022/08/20 08:14:08;;;;;;;26.00;18.90;;;;;;;;;;6091703;23;20018;-84
2022/08/20 08:16:35;;;;;;;29.17;19.90;;;;;;;;;;6115620;23;20018;-84
2022/08/20 08:19:05;;;;;;;26.43;19.40;;;;;;;;;;6117144;23;20014;-84
2022/08/20 08:21:31;;;;;;;29.15;20.27;;;;;;;;;;6091122;23;20025;-84
2022/08/20 08:23:57;;;;;;;29.55;21.00;;;;;;;;;;6092092;23;20018;-86
2022/08/20 08:26:22;;;;;;;30.15;19.77;;;;;;;;;;6115655;23;20032;-85
2022/08/20 08:28:48;;;;;;;28.35;20.73;;;;;;;;;;6091989;23;20037;-85
2022/08/20 08:31:13;;;;;;;26.45;18.20;;;;;;;;;;6115565;23;20044;-85
2022/08/20 08:33:39;;;;;;;25.73;17.77;;;;;;;;;;6091645;23;20010;-86
2022/08/20 08:36:10;;;;;;;27.20;18.52;;;;;;;;;;6091901;23;20017;-86
2022/08/20 08:38:39;;;;;;;25.80;18.40;;;;;;;;;;6115453;23;20132;-85
2022/08/20 08:41:22;;;;;;;30.52;20.00;;;;;;;;;;6091521;23;20481;-85
2022/08/20 08:43:52;;;;;;;25.05;17.73;;;;;;;;;;6117885;23;20029;-85
2022/08/20 08:46:21;;;;;;;30.35;19.95;;;;;;;;;;6115366;23;20089;-85
2022/08/20 08:48:49;;;;;;;29.95;21.73;;;;;;;;;;6115682;23;20057;-85
2022/08/20 08:51:24;;;;;;;26.35;19.17;;;;;;;;;;6091518;23;20025;-86
2022/08/20 08:53:54;;;;;;;30.08;20.98;;;;;;;;;;6115758;23;20017;-86
2022/08/20 08:56:23;;;;;;;26.30;19.17;;;;;;;;;;6115665;23;20118;-86
2022/08/20 08:58:48;;;;;;;28.10;20.25;;;;;;;;;;6090970;23;20496;-87
2022/08/20 09:01:17;;;;;;;30.50;21.02;;;;;;;;;;6115098;23;20033;-86
2022/08/20 09:03:45;;;;;;;29.40;20.27;;;;;;;;;;6091129;23;20017;-85
2022/08/20 09:06:14;;;;;;;30.38;20.67;;;;;;;;;;6115134;23;20069;-85
2022/08/20 09:08:53;;;;;;;27.33;19.90;;;;;;;;;;6091731;23;20438;-85
2022/08/20 09:11:21;;;;;;;27.50;20.15;;;;;;;;;;6091766;23;20022;-86
2022/08/20 09:13:53;;;;;;;28.65;20.30;;;;;;;;;;6116060;23;20083;-86
2022/08/20 09:16:18;;;;;;;28.15;20.48;;;;;;;;;;6091749;23;20025;-85
2022/08/20 09:18:44;;;;;;;26.80;20.48;;;;;;;;;;6091816;23;20014;-84
2022/08/20 09:21:09;;;;;;;27.02;19.83;;;;;;;;;;6091286;23;20097;-83
2022/08/20 09:23:35;;;;;;;26.25;19.15;;;;;;;;;;6116044;23;20044;-84
2022/08/20 09:26:00;;;;;;;28.23;20.13;;;;;;;;;;6091764;23;20085;-83
2022/08/20 09:28:28;;;;;;;26.83;19.23;;;;;;;;;;6114789;23;20010;-85
2022/08/20 09:30:54;;;;;;;25.38;18.85;;;;;;;;;;6115232;23;20010;-85
2022/08/20 09:33:19;;;;;;;24.42;18.73;;;;;;;;;;6090015;23;20018;-85
2022/08/20 09:35:45;;;;;;;24.17;17.45;;;;;;;;;;6114626;23;20041;-83
2022/08/20 09:38:11;;;;;;;23.95;17.17;;;;;;;;;;6090113;23;20033;-83
2022/08/20 09:40:36;;;;;;;25.13;18.00;;;;;;;;;;6114532;23;20018;-83
2022/08/20 09:43:24;;;;;;;21.70;17.35;;;;;;;;;;6126340;23;20014;-81
2022/08/20 09:45:49;;;;;;;23.25;16.65;;;;;;;;;;6030040;23;20019;-81
2022/08/20 09:48:14;;;;;;;20.30;15.60;;;;;;;;;;6053950;23;20643;-80
2022/08/20 09:50:45;;;;;;;19.58;14.23;;;;;;;;;;6030025;23;20019;-81
2022/08/20 09:53:10;;;;;;;20.83;15.52;;;;;;;;;;6031110;23;20660;-81
2022/08/20 09:55:38;;;;;;;21.10;14.60;;;;;;;;;;6030526;23;20046;-81
2022/08/20 09:58:05;;;;;;;;;;;;;;;;;;6031397;23;20151;-80
2022/08/20 10:00:30;;;;;;;21.25;13.80;;;;;;;;;;6006814;23;19945;-80
2022/08/20 10:02:56;;;;;;;19.30;13.90;;;;;;;;;;6006763;23;20040;-79
2022/08/20 10:05:21;;;;;;;18.98;13.52;;;;;;;;;;6030879;23;20022;-80
2022/08/20 10:07:46;;;;;;;16.60;13.25;;;;;;;;;;6030009;23;20033;-81
2022/08/20 10:10:13;;;;;;;17.58;12.80;;;;;;;;;;6029797;23;20424;-81
2022/08/20 10:12:40;;;;;;;18.58;11.85;;;;;;;;;;6030688;23;20098;-82
2022/08/20 10:15:06;;;;;;;15.60;11.65;;;;;;;;;;6033636;23;20023;-81
2022/08/20 10:17:32;;;;;;;14.52;11.23;;;;;;;;;;6032207;23;20019;-82
2022/08/20 10:19:57;;;;;;;15.32;10.73;;;;;;;;;;6032729;23;20359;-82
2022/08/20 10:22:24;;;;;;;15.85;11.45;;;;;;;;;;6048430;23;20018;-84
2022/08/20 10:24:49;;;;;;;12.93;9.57;;;;;;;;;;6091693;23;20421;-81
2022/08/20 10:27:14;;;;;;;11.90;9.00;;;;;;;;;;6090826;23;20025;-82
2022/08/20 10:29:40;;;;;;;13.02;8.95;;;;;;;;;;6092222;23;20036;-81
2022/08/20 10:32:11;;;;;;;10.57;8.23;;;;;;;;;;6090993;23;20013;-84
2022/08/20 10:34:39;;;;;;;12.65;8.50;;;;;;;;;;6091983;23;20016;-84
2022/08/20 10:37:05;;;;;;;10.32;7.78;;;;;;;;;;6091119;23;20388;-85
2022/08/20 10:39:30;;;;;;;9.38;7.25;;;;;;;;;;6116945;23;20025;-84
2022/08/20 10:41:55;;;;;;;8.93;7.25;;;;;;;;;;6090848;23;20022;-84
2022/08/20 10:44:21;;;;;;;10.40;7.35;;;;;;;;;;6116537;23;20713;-84
2022/08/20 10:46:46;;;;;;;10.32;6.95;;;;;;;;;;6091496;23;20355;-84
2022/08/20 10:49:11;;;;;;;9.43;6.95;;;;;;;;;;6067803;23;20531;-84
2022/08/20 10:51:37;;;;;;;9.40;5.70;;;;;;;;;;6091039;23;20037;-83
2022/08/20 10:54:02;;;;;;;9.18;6.30;;;;;;;;;;6092632;23;20032;-84
2022/08/20 10:56:27;;;;;;;7.28;5.43;;;;;;;;;;6091629;23;20025;-83
2022/08/20 10:58:53;;;;;;;10.20;6.10;;;;;;;;;;6067612;23;20010;-82
2022/08/20 11:01:18;;;;;;;8.32;5.95;;;;;;;;;;6067248;23;20462;-82
2022/08/20 11:03:44;;;;;;;7.18;5.25;;;;;;;;;;6091277;23;20014;-82
2022/08/20 11:06:09;;;;;;;7.22;5.32;;;;;;;;;;6066957;23;20042;-82
2022/08/20 11:08:34;;;;;;;7.68;5.20;;;;;;;;;;6067060;23;20485;-81
2022/08/20 11:11:00;;;;;;;8.57;5.43;;;;;;;;;;6092236;23;20376;-82
2022/08/20 11:13:25;;;;;;;6.55;5.07;;;;;;;;;;6092032;23;20025;-82
2022/08/20 11:15:51;;;;;;;8.15;5.80;;;;;;;;;;6066952;23;20093;-80
2022/08/20 11:18:16;;;;;;;8.25;6.05;;;;;;;;;;6068186;23;20013;-81
2022/08/20 11:20:41;;;;;;;7.57;5.82;;;;;;;;;;6067729;23;20018;-81
2022/08/20 11:23:07;;;;;;;8.20;5.75;;;;;;;;;;6067187;23;20036;-82
2022/08/20 11:25:32;;;;;;;8.55;5.78;;;;;;;;;;6091943;23;20016;-82
2022/08/20 11:27:58;;;;;;;8.48;5.35;;;;;;;;;;6068190;23;20049;-82
2022/08/20 11:30:34;;;;;;;7.55;5.28;;;;;;;;;;6091909;23;20018;-82
2022/08/20 11:33:00;;;;;;;7.88;5.63;;;;;;;;;;6068206;23;20324;-80
2022/08/20 11:35:27;;;;;;;7.57;5.40;;;;;;;;;;6068169;23;20022;-82
2022/08/20 11:37:54;;;;;;;8.27;5.07;;;;;;;;;;6068148;23;20094;-82
2022/08/20 11:40:20;;;;;;;7.90;5.75;;;;;;;;;;6091798;23;20021;-81
2022/08/20 11:42:46;;;;;;;8.40;5.72;;;;;;;;;;6067455;23;20493;-82
2022/08/20 11:45:12;;;;;;;9.15;5.45;;;;;;;;;;6092659;23;20478;-83
2022/08/20 11:47:37;;;;;;;7.93;5.50;;;;;;;;;;6073603;23;20108;-83
2022/08/20 11:50:27;;;;;;;8.70;5.05;;;;;;;;;;6090688;23;20084;-85
2022/08/20 11:52:53;;;;;;;9.73;5.13;;;;;;;;;;6091775;23;20463;-85
2022/08/20 11:55:19;;;;;;;7.88;4.80;;;;;;;;;;6091472;23;20032;-84
2022/08/20 11:57:46;;;;;;;6.28;4.55;;;;;;;;;;6092033;23;20350;-86
2022/08/20 12:00:23;;;;;;;7.78;4.55;;;;;;;;;;6091743;23;20018;-86
2022/08/20 12:02:50;;;;;;;6.93;4.70;;;;;;;;;;6116356;23;20387;-86
2022/08/20 12:05:16;;;;;;;6.25;4.35;;;;;;;;;;6092342;23;20484;-85
2022/08/20 12:07:41;;;;;;;6.40;4.63;;;;;;;;;;6092126;23;20085;-84
2022/08/20 12:10:08;;;;;;;5.85;4.25;;;;;;;;;;6091563;23;20021;-84
2022/08/20 12:12:34;;;;;;;5.82;3.90;;;;;;;;;;6092042;23;20097;-85
2022/08/20 12:14:59;;;;;;;6.38;4.45;;;;;;;;;;6092407;23;20034;-82
2022/08/20 12:17:27;;;;;;;5.30;3.92;;;;;;;;;;6090606;23;20049;-84
2022/08/20 12:19:54;;;;;;;5.75;4.22;;;;;;;;;;6091657;23;24446;-84
2022/08/20 12:22:20;;;;;;;6.15;4.32;;;;;;;;;;6090669;23;20014;-85
2022/08/20 12:24:45;;;;;;;6.00;4.00;;;;;;;;;;6090937;23;20018;-84
2022/08/20 12:27:26;;;;;;;7.30;4.55;;;;;;;;;;6089973;23;20018;-85
2022/08/20 12:29:54;;;;;;;5.70;4.43;;;;;;;;;;6092258;23;20009;-85
2022/08/20 12:32:20;;;;;;;6.45;4.50;;;;;;;;;;6090828;23;20395;-85
2022/08/20 12:34:49;;;;;;;5.10;4.00;;;;;;;;;;6092752;23;20013;-85
2022/08/20 12:37:18;;;;;;;5.93;3.97;;;;;;;;;;6090572;23;20258;-86
2022/08/20 12:39:46;;;;;;;6.43;4.10;;;;;;;;;;6092312;23;20010;-86
2022/08/20 12:42:13;;;;;;;6.43;4.20;;;;;;;;;;6091105;23;20069;-80
2022/08/20 12:44:39;;;;;;;7.33;4.60;;;;;;;;;;6117226;23;20109;-81
2022/08/20 12:47:08;;;;;;;5.93;3.90;;;;;;;;;;6090279;23;20486;-82
2022/08/20 12:49:34;;;;;;;5.97;4.00;;;;;;;;;;6116831;23;20041;-81
2022/08/20 12:51:59;;;;;;;5.18;3.83;;;;;;;;;;6090852;23;20037;-80
2022/08/20 12:54:25;;;;;;;7.75;3.92;;;;;;;;;;6067232;23;20359;-81
2022/08/20 12:56:50;;;;;;;5.05;3.92;;;;;;;;;;6066520;23;20009;-80
2022/08/20 12:59:17;;;;;;;6.18;4.00;;;;;;;;;;6067132;23;20021;-80
2022/08/20 13:01:42;;;;;;;8.00;4.50;;;;;;;;;;6067359;23;20006;-81
2022/08/20 13:04:08;;;;;;;6.57;3.65;;;;;;;;;;6067338;23;20025;-81
2022/08/20 13:06:33;;;;;;;6.10;4.40;;;;;;;;;;6090602;23;20485;-80
2022/08/20 13:08:59;;;;;;;6.40;4.60;;;;;;;;;;6068356;23;20014;-81
2022/08/20 13:11:24;;;;;;;5.75;4.47;;;;;;;;;;6090172;23;20021;-81
2022/08/20 13:13:49;;;;;;;6.43;4.45;;;;;;;;;;6066775;23;20020;-81
2022/08/20 13:16:15;;;;;;;6.65;4.35;;;;;;;;;;6090167;23;20069;-83
2022/08/20 13:18:41;;;;;;;5.93;4.68;;;;;;;;;;6091244;23;20120;-82
2022/08/20 13:21:06;;;;;;;6.03;4.68;;;;;;;;;;6090475;23;20022;-82
2022/08/20 13:23:32;;;;;;;6.65;5.10;;;;;;;;;;6067107;23;20048;-81
2022/08/20 13:25:57;;;;;;;7.50;4.93;;;;;;;;;;6065978;23;20024;-81
2022/08/20 13:28:23;;;;;;;9.52;5.32;;;;;;;;;;6090315;23;20564;-80
2022/08/20 13:30:48;;;;;;;8.30;5.55;;;;;;;;;;6090548;23;20014;-81
2022/08/20 13:33:13;;;;;;;8.32;5.45;;;;;;;;;;6066789;23;20021;-81
2022/08/20 13:35:39;;;;;;;6.65;5.45;;;;;;;;;;6065624;23;20021;-81
2022/08/20 13:38:04;;;;;;;9.52;6.28;;;;;;;;;;6090677;23;20021;-81
2022/08/20 13:40:33;;;;;;;8.35;6.25;;;;;;;;;;6066134;23;20021;-82
2022/08/20 13:42:59;;;;;;;8.30;6.80;;;;;;;;;;6066768;23;20018;-80
2022/08/20 13:45:25;;;;;;;8.25;6.45;;;;;;;;;;6066262;23;20020;-82
2022/08/20 13:47:52;;;;;;;8.82;6.63;;;;;;;;;;6074905;23;20033;-82
2022/08/20 13:50:19;;;;;;;11.25;7.35;;;;;;;;;;6114579;23;20029;-82
2022/08/20 13:52:47;;;;;;;;;;;;;;;;;;6091979;23;20073;-82
2022/08/20 13:55:16;;;;;;;9.65;7.00;;;;;;;;;;6115852;23;20341;-82
2022/08/20 13:57:43;;;;;;;9.80;6.78;;;;;;;;;;6090163;23;20010;-82
2022/08/20 14:00:12;;;;;;;11.68;8.82;;;;;;;;;;6115975;23;20025;-82
2022/08/20 14:02:38;;;;;;;9.52;6.93;;;;;;;;;;6090619;23;20077;-82
2022/08/20 14:05:04;;;;;;;9.38;7.15;;;;;;;;;;6091385;23;20041;-82
2022/08/20 14:07:30;;;;;;;10.13;8.07;;;;;;;;;;6115290;23;20465;-81
2022/08/20 14:10:08;;;;;;;11.15;8.55;;;;;;;;;;6091547;23;20021;-82
2022/08/20 14:12:34;;;;;;;12.02;8.30;;;;;;;;;;6114997;23;20021;-81
2022/08/20 14:14:59;;;;;;;11.95;8.82;;;;;;;;;;6091934;23;20015;-82
2022/08/20 14:17:30;;;;;;;13.50;8.43;;;;;;;;;;6114742;23;20022;-82
2022/08/20 14:19:58;;;;;;;14.45;9.60;;;;;;;;;;6091138;23;20084;-82
2022/08/20 14:22:24;;;;;;;11.73;9.00;;;;;;;;;;6090635;23;20026;-82
2022/08/20 14:24:50;;;;;;;12.60;9.30;;;;;;;;;;6115735;23;20010;-82
2022/08/20 14:27:18;;;;;;;12.63;9.43;;;;;;;;;;6090495;23;20041;-82
2022/08/20 14:29:45;;;;;;;12.48;9.32;;;;;;;;;;6091084;23;20085;-82
2022/08/20 14:32:11;;;;;;;11.65;8.48;;;;;;;;;;6089657;23;20459;-82
2022/08/20 14:34:37;;;;;;;11.15;9.10;;;;;;;;;;6091812;23;20010;-81